Station info - map view · info · telemetry · weather · raw · status · beacons · messages · bulletins · browse · moving · my account
Callsign, ship name or locator: Clear       
It is possible to search using wildcards (*?) after a prefix. Example: OH*
APRS station OE3PDB-5 - show graphs
Map loading...
Mic-E message: En route
Location: 48°12.31' N 16°11.93' E - locator JN88CE39UF - show map - static map
2.6 miles Southeast bearing 128° from Gablitz, Politischer Bezirk Wien Umgebung, Lower Austria, Austria [?]
7.0 miles Southeast bearing 150° from Tulbing, Politischer Bezirk Tulln, Lower Austria, Austria
8.0 miles West bearing 268° from Vienna, Politischer Bezirk Wien (Stadt), Vienna, Austria
42.0 miles West bearing 276° from Bratislava, Bratislavský, Slovakia
Last position: 2018-01-04 05:45:30 EST (16d 21h52m ago)
2018-01-04 11:45:30 CET local time at Gablitz, Austria [?]
Altitude: 833 ft
Course:
Speed: 2 MPH
Last path: OE3PDB-5>TX1R31 via WIDE1-1,WIDE2-2,qAR,OE3PDB-4 (good)
Positions stored: 12787
Other SSIDs: OE3PDB OE3PDB-1 OE3PDB-10 OE3PDB-11 OE3PDB-12 OE3PDB-13 OE3PDB-14 OE3PDB-15 OE3PDB-2 OE3PDB-3 OE3PDB-4 OE3PDB-6 OE3PDB-7 OE3PDB-8 OE3PDB-9 OE3PDB-T
APRS digipeater – Statistics for 2018-01:
Stations heard directly: 3 on radio path – show map
Last heard a station directly: 2017-12-27 03:48:27 EST (24d 23h49m ago)
Position packets heard directly: 3 on radio path
Stations near current position of OE3PDB-5 - show more
callsign distance last heard - EST      callsign distance last heard - EST
OE3PDB-4112.6 yards 123°2018-01-21 03:35:52 OE3PDB-T112.6 yards 123°2018-01-20 17:33:02
OE3PDB112.6 yards 123°2018-01-15 12:06:02 OE3PDB-15149.0 yards 90°2018-01-11 10:28:50
OE3PDB-2171.9 yards 104°2018-01-20 05:32:34 OE1ABV-51.1 miles 270°2018-01-04 10:57:01
OE1TKS-71.5 miles 60°2018-01-18 15:57:35 OE1XTK1.5 miles 59°2018-01-21 03:30:01
IZ3CFY-142.0 miles 84°2018-01-01 10:12:21 OE1TKS-142.1 miles 93°2018-01-19 02:21:42
OE1EBB-92.7 miles 95°2018-01-18 07:41:49 OE1AQL-72.7 miles 85°2018-01-18 13:27:24
R 843.0 miles 80°2018-01-21 03:21:10 OE1FFS-93.0 miles 79°2018-01-21 00:52:08
OE1FFS3.0 miles 80°2018-01-19 19:37:17 OE1FFS-73.0 miles 80°2017-12-29 13:25:00
OE1FFS-23.1 miles 79°2018-01-21 03:30:25 OE3GWW-23.1 miles 252°2018-01-21 03:33:15
OE3FDS-103.6 miles 309°2018-01-21 03:35:12 OE3XIA-103.6 miles 38°2018-01-21 03:11:47
Stations which heard OE3PDB-5 directly on radio –
callsign pkts first heard - EST last heard longest (tx => rx) longest at - EST
OE1XQR 83 2018-01-01 10:03:07 2018-01-04 05:34:38 JN88BF > JN88EE 14.1 miles 112° 2018-01-04 05:32:47
OE6XTR 20 2018-01-01 09:06:47 2018-01-01 11:17:31 JN88BJ > JN77VN 59.2 miles 197° 2018-01-01 09:06:47
OE3XKR 1 2018-01-01 08:48:35 2018-01-01 08:48:35 JN78WN > JN88EN 23.4 miles 85° 2018-01-01 08:48:35
OE1SSU-10 12 2018-01-01 10:27:31 2018-01-01 11:44:54 JN88GE > JN88DD 13.8 miles 255° 2018-01-01 10:27:31
OE1SSU-12 4 2018-01-01 11:25:43 2018-01-01 11:45:08 JN88CE > JN88DD 5.8 miles 147° 2018-01-01 11:45:08
OE1IWA-10 4 2018-01-01 11:25:15 2018-01-01 11:29:47 JN88DD > JN88ED 2.3 miles 144° 2018-01-01 11:29:47
OE3XIA-10 8 2018-01-01 08:45:51 2018-01-04 04:10:57 JN78WN > JN88CF 29.0 miles 140° 2018-01-01 08:45:51
OE3MZC-2 9 2018-01-01 08:44:58 2018-01-04 05:29:52 JN78WN > JN78XE 26.6 miles 171° 2018-01-01 08:44:58
OE3LKW 1 2018-01-01 08:56:37 2018-01-01 08:56:37 JN78XL > JN78TJ 18.0 miles 259° 2018-01-01 08:56:37
OE3REC-11 34 2018-01-01 10:05:06 2018-01-01 11:22:14 JN88EG > JN88HE 12.3 miles 119° 2018-01-01 10:05:06
OE1ACM-12 12 2018-01-01 10:08:50 2018-01-01 11:23:02 JN88ED > JN88FF 4.7 miles 42° 2018-01-01 11:23:02
OE1IWA-11 11 2018-01-01 11:24:28 2018-01-01 11:34:36 JN88DE > JN88ED 3.7 miles 157° 2018-01-01 11:34:36
OE1TRB-15 3 2018-01-01 10:21:06 2018-01-01 11:45:48 JN88CF > JN88EF 7.9 miles 70° 2018-01-01 11:45:48
OE3XNR 17 2018-01-01 07:28:08 2018-01-01 07:57:50 JN78OO > JN78JQ 21.1 miles 284° 2018-01-01 07:57:50
OE3RNB-10 17 2018-01-01 09:00:07 2018-01-04 05:34:37 JN88AK > JN88AG 12.3 miles 176° 2018-01-01 09:00:07
OE3PDB-6 28 2018-01-01 08:21:34 2018-01-04 05:42:28 JN78TP > JN88BG 36.0 miles 139° 2018-01-01 08:21:34
OE3BUB-10 13 2018-01-01 09:01:37 2018-01-01 11:30:51 JN88AK > JN88FG 19.7 miles 119° 2018-01-01 09:01:37
OE1XAW 87 2018-01-01 09:06:17 2018-01-04 05:32:46 JN88BJ > JN88EE 18.3 miles 144° 2018-01-01 09:06:17
OE3XLR 8 2018-01-04 04:15:45 2018-01-04 05:34:20 JN88BF > JN77TX 29.7 miles 231° 2018-01-04 05:34:20
OE3GWW-2 15 2018-01-01 11:43:47 2018-01-04 05:43:28 JN88CE > JN88BE 4.5 miles 257° 2018-01-01 11:43:47
OE3PDB-4 24 2018-01-01 11:40:36 2018-01-04 05:45:30 JN88BG > JN88CE 5.8 miles 125° 2018-01-04 05:27:55
OE1XTK 8 2018-01-01 11:43:27 2018-01-04 03:54:24 JN88CE > JN88CF 0.9 miles 343° 2018-01-01 11:43:27
OE3PDB-10 28 2018-01-01 08:44:58 2018-01-04 05:42:29 JN78WN > JN88BG 25.5 miles 152° 2018-01-01 08:44:58
OE3XRC-10 25 2018-01-01 07:51:41 2018-01-01 08:41:33 JN78VO > JN78QQ 18.5 miles 292° 2018-01-01 08:41:33
OE3PDB-1 1 2018-01-01 10:27:31 2018-01-01 10:27:31 JN88GE > JN88HD 3.4 miles 153° 2018-01-01 10:27:31
OK0BDV-2 1 2018-01-01 07:28:14 2018-01-01 07:28:14 JN78LS > JN78IR 12.2 miles 263° 2018-01-01 07:28:14
OE3ZK-13 7 2018-01-01 09:58:11 2018-01-01 11:02:04 JN88HE > JN88DH 16.1 miles 303° 2018-01-01 10:31:55
OE3VPA-10 24 2018-01-01 07:27:33 2018-01-01 08:38:47 JN78UO > JN78KS 40.3 miles 286° 2018-01-01 08:38:47
OE3VAA-11 11 2018-01-01 08:44:59 2018-01-04 05:34:01 JN78WN > JN88BF 26.1 miles 153° 2018-01-01 08:44:59
OE3XWJ-10 6 2018-01-01 07:58:20 2018-01-04 04:15:55 JN88CJ > JN78QI 38.9 miles 265° 2018-01-01 09:08:25
OE3PDB-T 6 2018-01-04 03:26:29 2018-01-04 05:45:21 JN88CF > JN88CE 1.2 miles 230° 2018-01-04 03:55:12

Only position packets which were originated by the station are shown here. The range statistics show some extra long hops, because some digipeaters do not correctly add themselves to the digipeater path. Please check the raw packets.
Stations heard directly by OE3PDB-5
callsign pkts first heard - EST last heard longest (rx => tx) longest at - EST
OE1XQR 1 2018-01-01 10:48:19 2018-01-01 10:48:19 JN88EE > JN88HE 10.7 miles 270° 2018-01-01 10:48:19
OE1XKR-7 1 2018-01-04 05:22:13 2018-01-04 05:22:13 JN88ED > JN88BG 13.8 miles 116° 2018-01-04 05:22:13
OE3PDB-10 1 2018-01-04 05:17:38 2018-01-04 05:17:38 JN88BG > JN88BG 45.4 yards 243° 2018-01-04 05:17:38

Only stations from which a position packet has been heard are shown here. The range statistics show some extra long hops, because some digipeaters do not correctly add themselves to the digipeater path. Please check the raw packets.
About this site
This page shows real-time information collected from the Automatic Position Reporting System Internet network (APRS-IS). APRS is used by amateur (ham) radio operators to transmit real-time position information, weather data, telemetry and messages over the radio. A vehicle equipped with a GPS receiver, a VHF transmitter or HF transceiver and a small computer device called a tracker transmits it's location, speed and course in a small data packet, which is then received by a nearby iGate receiving site which forwards the packet on the Internet. Systems connected to the Internet can send information on the APRS-IS without a radio transmitter, or collect and display information transmitted anywhere in the world.
FAQ · Blog · Discussion group · Linking to aprs.fi · AIS sites · Service status · Database statistics · Advertising on aprs.fi · Technical details · API · Change log · Planned changes · Credits and thanks · Terms Of Service · iPhone/iPad APRS